N81HU KLXV-KLXV
Flight info
| Callsign | N81HU |
|---|---|
| Flight time | N/A |
| Altitude | 12000 |
| Route | KLXV KASE KGWS KEGE KLXV |
| Aircraft | C210/L-V/N |
Departure
| Time | 2026-04-21 23:58 |
|---|---|
| Airport | Lake County Airport (KLXV) |
Arrival
| Time | N/A |
|---|---|
| Airport | Lake County Airport (KLXV) |
| Time | Latitude | Longitude | Altitude | Speed | Heading |
|---|---|---|---|---|---|
| 2026-04-21 23:36 | 39.22258 | -106.31599 | 9939 ft | 0 kts | 88° |
| 2026-04-21 23:46 | 39.22257 | -106.31595 | 9939 ft | 4 kts | 122° |
| 2026-04-21 23:46 | 39.22248 | -106.31598 | 9937 ft | 1 kts | 297° |
| 2026-04-21 23:47 | 39.22264 | -106.31617 | 9936 ft | 5 kts | 294° |
| 2026-04-21 23:47 | 39.22265 | -106.31629 | 9937 ft | 0 kts | 263° |
| 2026-04-21 23:51 | 39.22226 | -106.31673 | 9937 ft | 12 kts | 206° |
| 2026-04-21 23:51 | 39.22134 | -106.31687 | 9937 ft | 16 kts | 175° |
| 2026-04-21 23:52 | 39.22006 | -106.31662 | 9934 ft | 22 kts | 169° |
| 2026-04-21 23:52 | 39.21843 | -106.31625 | 9930 ft | 26 kts | 171° |
| 2026-04-21 23:52 | 39.21656 | -106.31584 | 9926 ft | 28 kts | 172° |
| 2026-04-21 23:52 | 39.21462 | -106.31543 | 9928 ft | 28 kts | 170° |
| 2026-04-21 23:53 | 39.21277 | -106.31500 | 9928 ft | 24 kts | 167° |
| 2026-04-21 23:53 | 39.21171 | -106.31440 | 9932 ft | 12 kts | 101° |
| 2026-04-21 23:53 | 39.21139 | -106.31359 | 9931 ft | 11 kts | 169° |
| 2026-04-21 23:53 | 39.21099 | -106.31383 | 9930 ft | 0 kts | 262° |
| 2026-04-21 23:55 | 39.21092 | -106.31427 | 9933 ft | 8 kts | 264° |
| 2026-04-21 23:56 | 39.21129 | -106.31467 | 9934 ft | 10 kts | 351° |
| 2026-04-21 23:56 | 39.21260 | -106.31496 | 9929 ft | 37 kts | 352° |
| 2026-04-21 23:56 | 39.21654 | -106.31579 | 9926 ft | 76 kts | 350° |
| 2026-04-21 23:56 | 39.22248 | -106.31727 | 9964 ft | 94 kts | 350° |
| 2026-04-21 23:57 | 39.22930 | -106.31839 | 10051 ft | 100 kts | 349° |
| 2026-04-21 23:57 | 39.23560 | -106.32127 | 10152 ft | 94 kts | 308° |
| 2026-04-21 23:57 | 39.23699 | -106.32887 | 10168 ft | 95 kts | 257° |
| 2026-04-21 23:57 | 39.23312 | -106.33570 | 10292 ft | 95 kts | 215° |
| 2026-04-21 23:58 | 39.22675 | -106.33821 | 10466 ft | 99 kts | 196° |
| 2026-04-21 23:58 | 39.21994 | -106.34008 | 10626 ft | 100 kts | 199° |
| 2026-04-21 23:58 | 39.21355 | -106.34282 | 10821 ft | 96 kts | 202° |
| 2026-04-21 23:58 | 39.20725 | -106.34546 | 11091 ft | 89 kts | 194° |
| 2026-04-21 23:59 | 39.20147 | -106.34773 | 11233 ft | 89 kts | 197° |
| 2026-04-21 23:59 | 39.19561 | -106.35103 | 11373 ft | 96 kts | 205° |
| 2026-04-21 23:59 | 39.18935 | -106.35506 | 11478 ft | 105 kts | 210° |
| 2026-04-21 23:59 | 39.18313 | -106.35995 | 11675 ft | 106 kts | 214° |
| 2026-04-22 00:00 | 39.17745 | -106.36590 | 11850 ft | 105 kts | 219° |
| 2026-04-22 00:00 | 39.17099 | -106.37103 | 11885 ft | 117 kts | 194° |
| 2026-04-22 00:00 | 39.16290 | -106.36970 | 12043 ft | 120 kts | 158° |
| 2026-04-22 00:00 | 39.15537 | -106.36430 | 12115 ft | 135 kts | 153° |
| 2026-04-22 00:01 | 39.14727 | -106.35771 | 12273 ft | 134 kts | 151° |
| 2026-04-22 00:01 | 39.13916 | -106.35131 | 12434 ft | 142 kts | 153° |
| 2026-04-22 00:01 | 39.13075 | -106.34429 | 12669 ft | 142 kts | 153° |
| 2026-04-22 00:01 | 39.12189 | -106.33910 | 12892 ft | 141 kts | 164° |
| 2026-04-22 00:02 | 39.11218 | -106.33760 | 13083 ft | 140 kts | 186° |
| 2026-04-22 00:02 | 39.10273 | -106.33965 | 13341 ft | 136 kts | 197° |
| 2026-04-22 00:02 | 39.09374 | -106.34420 | 13467 ft | 143 kts | 210° |
| 2026-04-22 00:02 | 39.08561 | -106.35166 | 13654 ft | 144 kts | 222° |
| 2026-04-22 00:03 | 39.07816 | -106.36085 | 13615 ft | 150 kts | 224° |
| 2026-04-22 00:03 | 39.07213 | -106.37177 | 13625 ft | 151 kts | 242° |
| 2026-04-22 00:03 | 39.06943 | -106.38507 | 13562 ft | 158 kts | 261° |
| 2026-04-22 00:03 | 39.06968 | -106.39933 | 13524 ft | 162 kts | 270° |
| 2026-04-22 00:04 | 39.07061 | -106.41368 | 13480 ft | 164 kts | 270° |
| 2026-04-22 00:04 | 39.07100 | -106.42842 | 13476 ft | 166 kts | 267° |
| 2026-04-22 00:04 | 39.07106 | -106.44297 | 13618 ft | 160 kts | 265° |
| 2026-04-22 00:04 | 39.07086 | -106.45761 | 13522 ft | 167 kts | 266° |
| 2026-04-22 00:05 | 39.07039 | -106.47231 | 13526 ft | 163 kts | 261° |
| 2026-04-22 00:05 | 39.06999 | -106.48716 | 13433 ft | 167 kts | 263° |
| 2026-04-22 00:05 | 39.07008 | -106.50190 | 13483 ft | 162 kts | 270° |
| 2026-04-22 00:05 | 39.07283 | -106.51602 | 13476 ft | 167 kts | 289° |
| 2026-04-22 00:06 | 39.07719 | -106.52999 | 13399 ft | 166 kts | 277° |
| 2026-04-22 00:06 | 39.08289 | -106.54221 | 13369 ft | 172 kts | 322° |
| 2026-04-22 00:06 | 39.09450 | -106.54600 | 13358 ft | 174 kts | 349° |
| 2026-04-22 00:06 | 39.10459 | -106.55287 | 13345 ft | 162 kts | 307° |